createdAt,value
2023-07-14T00:00:30.565Z,95981.56
2023-07-14T00:02:58.142Z,95959.78
2023-07-14T00:05:30.290Z,95977.09
2023-07-14T00:07:58.136Z,95973.13
2023-07-14T00:10:35.966Z,95949.66
2023-07-14T00:13:09.004Z,95958.03
2023-07-14T00:15:39.253Z,95970.06
2023-07-14T00:18:18.761Z,95961.41
2023-07-14T00:20:45.493Z,95954.94
2023-07-14T00:23:13.895Z,95962.00
2023-07-14T00:25:41.521Z,95942.72
2023-07-14T00:28:26.146Z,95961.50
2023-07-14T00:30:53.034Z,95957.94
2023-07-14T00:33:20.494Z,95958.59
2023-07-14T00:35:50.844Z,95953.56
2023-07-14T00:38:17.528Z,95935.97
2023-07-14T00:40:49.070Z,95940.16
2023-07-14T00:43:22.171Z,95947.91
2023-07-14T00:45:51.189Z,95942.22
2023-07-14T00:48:21.437Z,95941.34
2023-07-14T00:51:06.440Z,95940.75
2023-07-14T00:53:36.955Z,95945.69
2023-07-14T00:56:09.479Z,95948.69
2023-07-14T00:58:37.054Z,95944.53
2023-07-14T01:01:24.449Z,95943.44
2023-07-14T01:03:57.172Z,95946.91
2023-07-14T01:06:39.834Z,95947.41
2023-07-14T01:09:15.077Z,95950.69
2023-07-14T01:11:55.682Z,95947.59
2023-07-14T01:14:29.526Z,95942.63
2023-07-14T01:16:57.561Z,95941.75
2023-07-14T01:19:42.137Z,95942.25
2023-07-14T01:22:36.646Z,95944.53
2023-07-14T01:25:25.187Z,95943.53
2023-07-14T01:27:51.936Z,95941.44
2023-07-14T01:30:20.498Z,95945.28
2023-07-14T01:32:49.826Z,95938.06
2023-07-14T01:35:19.215Z,95941.63
2023-07-14T01:37:46.947Z,95936.34
2023-07-14T01:40:19.001Z,95943.66
2023-07-14T01:43:00.605Z,95940.00
2023-07-14T01:45:34.391Z,95933.78
2023-07-14T01:48:04.814Z,95941.06
2023-07-14T01:50:35.034Z,95938.84
2023-07-14T01:53:07.299Z,95933.78
2023-07-14T01:55:36.160Z,95938.69
2023-07-14T01:58:09.176Z,95941.94
2023-07-14T02:00:37.743Z,95945.69
2023-07-14T02:03:07.668Z,95946.47
2023-07-14T02:05:37.738Z,95922.88
2023-07-14T02:08:07.383Z,95940.84
2023-07-14T02:10:34.515Z,95947.44
2023-07-14T02:13:02.726Z,95947.16
2023-07-14T02:15:32.985Z,95941.16
2023-07-14T02:18:01.894Z,95945.56
2023-07-14T02:20:36.292Z,95949.75
2023-07-14T02:23:06.618Z,95947.50
2023-07-14T02:25:48.216Z,95946.22
2023-07-14T02:28:15.933Z,95947.94
2023-07-14T02:30:50.132Z,95944.88
2023-07-14T02:33:25.567Z,95944.38
2023-07-14T02:36:40.411Z,95938.38
2023-07-14T02:39:07.985Z,95943.50
2023-07-14T02:41:40.226Z,95952.78
2023-07-14T02:44:10.077Z,95946.09
2023-07-14T02:46:55.228Z,95948.13
2023-07-14T02:49:22.058Z,95944.53
2023-07-14T02:51:48.747Z,95941.06
2023-07-14T02:54:15.421Z,95921.72
2023-07-14T02:56:42.127Z,95937.38
2023-07-14T02:59:15.162Z,95940.38
2023-07-14T03:01:41.968Z,95941.34
2023-07-14T03:04:08.854Z,95932.16
2023-07-14T03:06:35.728Z,95937.19
2023-07-14T03:09:02.696Z,95943.97
2023-07-14T03:11:29.589Z,95923.09
2023-07-14T03:13:56.395Z,95932.91
2023-07-14T03:16:23.154Z,95927.09
2023-07-14T03:18:49.875Z,95919.91
2023-07-14T03:21:16.911Z,95931.13
2023-07-14T03:23:43.936Z,95928.22
2023-07-14T03:26:11.469Z,95919.47
2023-07-14T03:28:38.722Z,95919.84
2023-07-14T03:31:06.320Z,95924.00
2023-07-14T03:33:36.970Z,95919.72
2023-07-14T03:36:06.072Z,95904.50
2023-07-14T03:38:46.250Z,95917.72
2023-07-14T03:41:15.693Z,95920.94
2023-07-14T03:43:42.920Z,95909.56
2023-07-14T03:46:09.809Z,95915.59
2023-07-14T03:48:36.598Z,95910.25
2023-07-14T03:51:04.901Z,95922.47
2023-07-14T03:53:32.332Z,95919.28
2023-07-14T03:55:59.993Z,95918.50
2023-07-14T03:58:26.896Z,95903.66
2023-07-14T04:00:58.925Z,95918.28
2023-07-14T04:03:25.796Z,95919.69
2023-07-14T04:05:52.509Z,95907.38
2023-07-14T04:08:19.302Z,95912.53
2023-07-14T04:10:45.988Z,95914.34
2023-07-14T04:13:12.689Z,95911.09
2023-07-14T04:15:39.401Z,95908.59
2023-07-14T04:18:06.238Z,95915.03
2023-07-14T04:20:32.954Z,95901.03
2023-07-14T04:22:59.879Z,95913.94
2023-07-14T04:25:26.759Z,95904.66
2023-07-14T04:27:54.155Z,95910.19
2023-07-14T04:30:21.391Z,95904.06
2023-07-14T04:32:48.609Z,95908.41
2023-07-14T04:35:15.543Z,95902.78
2023-07-14T04:37:42.265Z,95887.69
2023-07-14T04:40:25.976Z,95886.13
2023-07-14T04:42:57.043Z,95870.34
2023-07-14T04:45:23.853Z,95880.63
2023-07-14T04:47:52.510Z,95901.44
2023-07-14T04:50:19.354Z,95903.16
2023-07-14T04:52:46.133Z,95886.56
2023-07-14T04:55:12.873Z,95881.38
2023-07-14T04:57:39.665Z,95888.69
2023-07-14T05:00:07.269Z,95895.53
2023-07-14T05:02:37.169Z,95899.63
2023-07-14T05:05:16.265Z,95897.19
2023-07-14T05:07:42.992Z,95891.38
2023-07-14T05:10:10.231Z,95889.28
2023-07-14T05:12:37.149Z,95889.22
2023-07-14T05:15:12.043Z,95877.44
2023-07-14T05:17:39.825Z,95867.91
2023-07-14T05:20:08.023Z,95885.19
2023-07-14T05:22:34.950Z,95871.25
2023-07-14T05:25:01.761Z,95871.19
2023-07-14T05:27:28.456Z,95872.47
2023-07-14T05:29:55.719Z,95867.66
2023-07-14T05:32:23.737Z,95873.63
2023-07-14T05:34:50.738Z,95868.47
2023-07-14T05:37:18.871Z,95872.50
2023-07-14T05:39:46.339Z,95873.53
2023-07-14T05:42:13.435Z,95870.63
2023-07-14T05:44:40.719Z,95873.72
2023-07-14T05:47:07.744Z,95872.91
2023-07-14T05:49:34.889Z,95860.78
2023-07-14T05:52:02.132Z,95873.81
2023-07-14T05:54:29.242Z,95863.38
2023-07-14T05:56:56.971Z,95859.78
2023-07-14T05:59:24.033Z,95869.50
2023-07-14T06:01:51.402Z,95850.97
2023-07-14T06:04:18.200Z,95848.66
2023-07-14T06:06:44.906Z,95860.03
2023-07-14T06:09:13.830Z,95841.09
2023-07-14T06:11:41.300Z,95843.28
2023-07-14T06:14:08.193Z,95848.84
2023-07-14T06:16:34.942Z,95837.16
2023-07-14T06:19:01.769Z,95843.16
2023-07-14T06:21:28.440Z,95839.22
2023-07-14T06:23:55.119Z,95840.00
2023-07-14T06:26:21.827Z,95829.72
2023-07-14T06:28:48.500Z,95835.13
2023-07-14T06:31:15.751Z,95830.72
2023-07-14T06:33:42.457Z,95832.44
2023-07-14T06:36:09.540Z,95838.31
2023-07-14T06:38:36.347Z,95837.84
2023-07-14T06:41:05.755Z,95837.69
2023-07-14T06:43:33.553Z,95829.44
2023-07-14T06:46:00.747Z,95830.41
2023-07-14T06:48:28.485Z,95832.16
2023-07-14T06:50:55.739Z,95825.19
2023-07-14T06:53:23.066Z,95819.81
2023-07-14T06:55:49.753Z,95801.69
2023-07-14T06:58:16.562Z,95819.13
2023-07-14T07:00:43.250Z,95828.69
2023-07-14T07:03:09.996Z,95822.44
2023-07-14T07:05:44.231Z,95821.81
2023-07-14T07:08:13.667Z,95813.16
2023-07-14T07:10:44.777Z,95815.69
2023-07-14T07:13:13.358Z,95812.31
2023-07-14T07:15:41.086Z,95816.59
2023-07-14T07:18:08.874Z,95823.09
2023-07-14T07:20:42.632Z,95814.53
2023-07-14T07:23:10.894Z,95814.81
2023-07-14T07:25:37.700Z,95812.09
2023-07-14T07:28:05.097Z,95802.06
2023-07-14T07:30:34.450Z,95811.97
2023-07-14T07:33:01.181Z,95817.88
2023-07-14T07:35:29.176Z,95812.63
2023-07-14T07:37:55.946Z,95807.38
2023-07-14T07:40:22.681Z,95803.69
2023-07-14T07:42:49.492Z,95806.25
2023-07-14T07:45:17.961Z,95813.25
2023-07-14T07:47:44.706Z,95817.41
2023-07-14T07:50:11.517Z,95805.16
2023-07-14T07:52:38.231Z,95805.16
2023-07-14T07:55:05.616Z,95794.47
2023-07-14T07:57:33.917Z,95807.44
2023-07-14T08:00:01.041Z,95800.31
2023-07-14T08:02:27.895Z,95792.78
2023-07-14T08:04:55.150Z,95790.88
2023-07-14T08:07:21.943Z,95784.78
2023-07-14T08:09:51.808Z,95782.69
2023-07-14T08:12:18.545Z,95788.59
2023-07-14T08:14:57.436Z,95785.97
2023-07-14T08:17:25.935Z,95785.06
2023-07-14T08:19:53.390Z,95774.59
2023-07-14T08:22:22.227Z,95793.19
2023-07-14T08:24:49.413Z,95774.88
2023-07-14T08:27:16.511Z,95771.63
2023-07-14T08:29:43.819Z,95768.22
2023-07-14T08:32:11.251Z,95767.47
2023-07-14T08:34:38.339Z,95769.47
2023-07-14T08:37:06.064Z,95751.34
2023-07-14T08:39:34.432Z,95765.53
2023-07-14T08:42:08.516Z,95755.28
2023-07-14T08:44:52.070Z,95776.38
2023-07-14T08:47:32.188Z,95762.06
2023-07-14T08:50:15.115Z,95758.00
2023-07-14T08:52:41.914Z,95762.72
2023-07-14T08:55:17.976Z,95753.56
2023-07-14T08:57:50.819Z,95755.53
2023-07-14T09:00:27.226Z,95757.28
2023-07-14T09:03:07.722Z,95753.53
2023-07-14T09:05:38.148Z,95753.66
2023-07-14T09:08:05.739Z,95728.38
2023-07-14T09:10:53.200Z,95747.81
2023-07-14T09:14:18.664Z,95745.94
2023-07-14T09:16:53.387Z,95733.72
2023-07-14T09:19:33.800Z,95726.84
2023-07-14T09:22:20.186Z,95723.75
2023-07-14T09:25:00.912Z,95730.28
2023-07-14T09:27:30.144Z,95728.22
2023-07-14T09:29:59.238Z,95721.25
2023-07-14T09:32:39.057Z,95710.81
2023-07-14T09:35:18.752Z,95722.78
2023-07-14T09:37:55.337Z,95718.41
2023-07-14T09:40:43.209Z,95709.91
2023-07-14T09:43:12.042Z,95697.38
2023-07-14T09:45:41.322Z,95697.09
2023-07-14T09:48:20.584Z,95708.00
2023-07-14T09:51:02.185Z,95706.75
2023-07-14T09:53:31.189Z,95692.66
2023-07-14T09:56:06.844Z,95694.63
2023-07-14T09:58:34.811Z,95696.56
2023-07-14T10:01:07.206Z,95693.06
2023-07-14T10:03:45.836Z,95691.66
2023-07-14T10:06:22.068Z,95691.66
2023-07-14T10:08:51.461Z,95697.16
2023-07-14T10:11:18.363Z,95692.47
2023-07-14T10:13:54.310Z,95692.00
2023-07-14T10:16:22.053Z,95691.75
2023-07-14T10:18:53.931Z,95688.44
2023-07-14T10:21:30.381Z,95684.44
2023-07-14T10:23:58.526Z,95687.16
2023-07-14T10:26:29.610Z,95672.34
2023-07-14T10:28:59.380Z,95670.19
2023-07-14T10:31:45.624Z,95658.53
2023-07-14T10:34:25.984Z,95659.00
2023-07-14T10:36:58.616Z,95659.25
2023-07-14T10:39:37.035Z,95651.41
2023-07-14T10:42:05.607Z,95659.09
2023-07-14T10:44:37.093Z,95650.06
2023-07-14T10:47:13.278Z,95651.28
2023-07-14T10:49:47.099Z,95634.25
2023-07-14T10:52:28.512Z,95636.25
2023-07-14T10:55:04.930Z,95640.81
2023-07-14T10:57:40.647Z,95628.59
2023-07-14T11:00:30.410Z,95624.31
2023-07-14T11:03:28.119Z,95628.44
2023-07-14T11:06:04.427Z,95628.47
2023-07-14T11:08:33.772Z,95615.75
2023-07-14T11:11:04.188Z,95610.94
2023-07-14T11:13:44.013Z,95615.78
2023-07-14T11:16:39.498Z,95610.59
2023-07-14T11:19:14.812Z,95608.19
2023-07-14T11:21:59.008Z,95599.06
2023-07-14T11:24:39.861Z,95578.91
2023-07-14T11:27:25.687Z,95588.13
2023-07-14T11:30:01.372Z,95587.84
2023-07-14T11:32:54.076Z,95579.63
2023-07-14T11:35:35.388Z,95582.31
2023-07-14T11:38:28.239Z,95564.41
2023-07-14T11:40:55.519Z,95568.13
2023-07-14T11:43:25.564Z,95568.91
2023-07-14T11:46:00.670Z,95555.41
2023-07-14T11:48:39.866Z,95553.13
2023-07-14T11:51:06.505Z,95566.06
2023-07-14T11:53:34.761Z,95559.31
2023-07-14T11:56:24.883Z,95554.84
2023-07-14T11:59:05.931Z,95554.22
2023-07-14T12:01:33.189Z,95555.13
2023-07-14T12:04:27.525Z,95561.47
2023-07-14T12:07:16.431Z,95553.03
2023-07-14T12:10:01.495Z,95556.84
2023-07-14T12:12:31.510Z,95543.94
2023-07-14T12:14:58.216Z,95526.94
2023-07-14T12:17:46.610Z,95533.84
2023-07-14T12:20:13.334Z,95542.25
2023-07-14T12:22:42.548Z,95546.53
2023-07-14T12:25:13.654Z,95539.13
2023-07-14T12:27:45.737Z,95539.19
2023-07-14T12:30:19.090Z,95538.22
2023-07-14T12:32:46.289Z,95529.16
2023-07-14T12:35:18.654Z,95521.31
2023-07-14T12:37:47.478Z,95528.53
2023-07-14T12:40:21.863Z,95520.53
2023-07-14T12:42:49.917Z,95519.41
2023-07-14T12:45:19.816Z,95509.81
2023-07-14T12:47:48.653Z,95512.53
2023-07-14T12:50:22.310Z,95494.88
2023-07-14T12:52:50.613Z,95495.81
2023-07-14T12:55:25.171Z,95505.56
2023-07-14T12:57:53.062Z,95498.16
2023-07-14T13:00:21.627Z,95490.63
2023-07-14T13:02:50.075Z,95481.47
2023-07-14T13:05:19.082Z,95495.13
2023-07-14T13:07:50.434Z,95493.50
2023-07-14T13:10:22.524Z,95500.84
2023-07-14T13:12:53.697Z,95496.22
2023-07-14T13:15:21.410Z,95484.44
2023-07-14T13:17:50.960Z,95488.03
2023-07-14T13:20:21.984Z,95487.34
2023-07-14T13:23:07.017Z,95486.38
2023-07-14T13:25:33.776Z,95478.78
2023-07-14T13:28:18.230Z,95473.81
2023-07-14T13:30:46.099Z,95480.41
2023-07-14T13:33:16.511Z,95474.47
2023-07-14T13:35:57.158Z,95466.66
2023-07-14T13:38:24.162Z,95469.38
2023-07-14T13:40:54.334Z,95472.69
2023-07-14T13:43:22.565Z,95467.03
2023-07-14T13:46:05.975Z,95468.25
2023-07-14T13:48:34.529Z,95458.50
2023-07-14T13:51:04.732Z,95460.19
2023-07-14T13:53:31.400Z,95456.81
2023-07-14T13:55:58.310Z,95452.00
2023-07-14T13:58:25.062Z,95438.03
2023-07-14T14:00:51.927Z,95445.13
2023-07-14T14:03:26.065Z,95441.28
2023-07-14T14:05:53.250Z,95445.22
2023-07-14T14:08:20.907Z,95437.81
2023-07-14T14:10:48.196Z,95433.09
2023-07-14T14:13:16.545Z,95432.28
2023-07-14T14:15:48.853Z,95435.44
2023-07-14T14:18:20.780Z,95442.53
2023-07-14T14:20:48.639Z,95429.63
2023-07-14T14:23:18.637Z,95430.78
2023-07-14T14:25:45.971Z,95429.50
2023-07-14T14:28:13.056Z,95428.78
2023-07-14T14:30:43.024Z,95428.34
2023-07-14T14:33:15.514Z,95429.59
2023-07-14T14:35:43.067Z,95426.75
2023-07-14T14:38:28.075Z,95424.31
2023-07-14T14:41:06.423Z,95425.97
2023-07-14T14:43:33.431Z,95415.16
2023-07-14T14:46:01.895Z,95423.09
2023-07-14T14:48:40.064Z,95416.81
2023-07-14T14:51:13.920Z,95410.09
2023-07-14T14:53:42.372Z,95412.47
2023-07-14T14:56:25.820Z,95411.78
2023-07-14T14:58:57.690Z,95408.59
2023-07-14T15:01:44.392Z,95399.16
2023-07-14T15:04:18.081Z,95394.88
2023-07-14T15:06:47.346Z,95391.00
2023-07-14T15:09:15.471Z,95387.38
2023-07-14T15:11:46.628Z,95391.91
2023-07-14T15:14:37.534Z,95386.50
2023-07-14T15:17:35.382Z,95387.75
2023-07-14T15:20:02.330Z,95374.03
2023-07-14T15:22:29.681Z,95374.84
2023-07-14T15:24:56.376Z,95375.13
2023-07-14T15:27:29.603Z,95367.34
2023-07-14T15:30:04.208Z,95357.63
2023-07-14T15:32:31.747Z,95355.19
2023-07-14T15:34:58.576Z,95360.28
2023-07-14T15:37:25.279Z,95360.66
2023-07-14T15:39:52.093Z,95360.31
2023-07-14T15:42:18.747Z,95347.38
2023-07-14T15:44:45.429Z,95356.38
2023-07-14T15:47:17.186Z,95351.34
2023-07-14T15:49:48.960Z,95342.78
2023-07-14T15:52:19.735Z,95350.19
2023-07-14T15:54:46.926Z,95354.31
2023-07-14T15:57:16.137Z,95332.28
2023-07-14T15:59:44.875Z,95341.31
2023-07-14T16:02:16.675Z,95339.09
2023-07-14T16:04:43.650Z,95331.94
2023-07-14T16:07:15.350Z,95334.22
2023-07-14T16:09:43.578Z,95333.50
2023-07-14T16:12:15.274Z,95341.81
2023-07-14T16:14:42.144Z,95335.84
2023-07-14T16:17:08.897Z,95343.75
2023-07-14T16:19:37.457Z,95332.84
2023-07-14T16:22:04.712Z,95331.69
2023-07-14T16:24:38.565Z,95324.56
2023-07-14T16:27:16.376Z,95326.25
2023-07-14T16:29:43.210Z,95323.81
2023-07-14T16:32:16.269Z,95313.72
2023-07-14T16:34:43.550Z,95318.34
2023-07-14T16:37:20.098Z,95313.63
2023-07-14T16:39:48.578Z,95329.66
2023-07-14T16:42:19.690Z,95326.25
2023-07-14T16:44:46.589Z,95321.19
2023-07-14T16:47:13.389Z,95319.09
2023-07-14T16:49:40.988Z,95306.97
2023-07-14T16:52:40.358Z,95310.19
2023-07-14T16:55:33.452Z,95318.31
2023-07-14T16:58:03.382Z,95312.47
2023-07-14T17:00:33.095Z,95315.91
2023-07-14T17:03:11.789Z,95302.53
2023-07-14T17:05:40.146Z,95301.03
2023-07-14T17:08:16.045Z,95310.47
2023-07-14T17:10:42.778Z,95313.06
2023-07-14T17:13:25.884Z,95307.13
2023-07-14T17:15:54.791Z,95310.97
2023-07-14T17:18:25.058Z,95301.28
2023-07-14T17:20:53.987Z,95309.81
2023-07-14T17:23:24.416Z,95312.19
2023-07-14T17:25:52.902Z,95307.06
2023-07-14T17:28:21.161Z,95304.81
2023-07-14T17:30:54.028Z,95304.72
2023-07-14T17:33:25.879Z,95305.13
2023-07-14T17:35:55.067Z,95305.16
2023-07-14T17:38:24.508Z,95296.88
2023-07-14T17:40:51.191Z,95286.72
2023-07-14T17:43:21.852Z,95292.13
2023-07-14T17:45:49.774Z,95299.13
2023-07-14T17:48:17.053Z,95299.88
2023-07-14T17:50:47.607Z,95313.03
2023-07-14T17:53:19.512Z,95300.88
2023-07-14T17:55:46.655Z,95287.97
2023-07-14T17:58:15.066Z,95298.69
2023-07-14T18:00:45.512Z,95306.41
2023-07-14T18:03:27.117Z,95308.69
2023-07-14T18:05:54.302Z,95304.78
2023-07-14T18:08:24.599Z,95309.47
2023-07-14T18:10:58.355Z,95297.66
2023-07-14T18:13:38.021Z,95304.44
2023-07-14T18:16:05.364Z,95309.06
2023-07-14T18:18:32.212Z,95305.91
2023-07-14T18:21:02.102Z,95313.56
2023-07-14T18:23:31.836Z,95307.72
2023-07-14T18:25:59.184Z,95304.28
2023-07-14T18:28:28.186Z,95304.63
2023-07-14T18:30:56.822Z,95306.84
2023-07-14T18:33:26.748Z,95297.25
2023-07-14T18:35:57.114Z,95309.66
2023-07-14T18:38:25.236Z,95298.69
2023-07-14T18:40:55.118Z,95299.81
2023-07-14T18:43:38.169Z,95309.06
2023-07-14T18:46:06.922Z,95301.94
2023-07-14T18:48:35.396Z,95306.44
2023-07-14T18:51:02.450Z,95304.72
2023-07-14T18:53:29.192Z,95292.84
2023-07-14T18:55:56.161Z,95298.56
2023-07-14T18:58:25.723Z,95311.78
2023-07-14T19:00:55.994Z,95311.66
2023-07-14T19:03:33.347Z,95316.56
2023-07-14T19:06:01.237Z,95306.09
2023-07-14T19:08:28.270Z,95311.75
2023-07-14T19:11:16.784Z,95310.13
2023-07-14T19:13:44.700Z,95306.88
2023-07-14T19:16:24.817Z,95307.19
2023-07-14T19:18:52.115Z,95313.81
2023-07-14T19:21:24.777Z,95314.47
2023-07-14T19:23:51.813Z,95319.38
2023-07-14T19:26:18.851Z,95323.81
2023-07-14T19:28:47.505Z,95326.66
2023-07-14T19:31:31.189Z,95328.84
2023-07-14T19:34:02.379Z,95322.84
2023-07-14T19:36:29.104Z,95329.97
2023-07-14T19:38:57.623Z,95322.19
2023-07-14T19:41:25.533Z,95337.75
2023-07-14T19:43:52.647Z,95333.97
2023-07-14T19:46:19.854Z,95332.16
2023-07-14T19:48:47.019Z,95331.59
2023-07-14T19:51:25.033Z,95335.84
2023-07-14T19:53:53.448Z,95344.91
2023-07-14T19:56:22.751Z,95343.38
2023-07-14T19:58:50.026Z,95347.91
2023-07-14T20:01:17.676Z,95348.53
2023-07-14T20:03:45.423Z,95354.00
2023-07-14T20:06:21.756Z,95356.38
2023-07-14T20:08:54.540Z,95359.22
2023-07-14T20:11:27.134Z,95360.59
2023-07-14T20:13:54.968Z,95357.34
2023-07-14T20:16:23.459Z,95348.38
2023-07-14T20:18:51.216Z,95364.41
2023-07-14T20:21:27.130Z,95355.25
2023-07-14T20:23:56.080Z,95368.19
2023-07-14T20:26:22.973Z,95355.72
2023-07-14T20:28:51.112Z,95354.47
2023-07-14T20:33:48.708Z,95358.41
2023-07-14T20:36:19.036Z,95362.16
2023-07-14T20:38:46.113Z,95366.03
2023-07-14T20:41:20.909Z,95363.53
2023-07-14T20:43:48.755Z,95366.72
2023-07-14T20:46:27.314Z,95365.06
2023-07-14T20:49:10.844Z,95360.50
2023-07-14T20:51:45.283Z,95359.09
2023-07-14T20:54:15.723Z,95365.72
2023-07-14T20:56:42.691Z,95366.59
2023-07-14T20:59:09.547Z,95374.66
2023-07-14T21:01:36.725Z,95363.81
2023-07-14T21:04:21.052Z,95360.72
2023-07-14T21:06:47.729Z,95355.88
2023-07-14T21:09:14.404Z,95371.75
2023-07-14T21:11:41.810Z,95364.09
2023-07-14T21:14:11.153Z,95364.66
2023-07-14T21:16:38.057Z,95374.47
2023-07-14T21:19:04.868Z,95371.69
2023-07-14T21:21:35.150Z,95377.72
2023-07-14T21:24:10.736Z,95380.13
2023-07-14T21:26:37.532Z,95375.47
2023-07-14T21:29:06.989Z,95380.88
2023-07-14T21:31:42.747Z,95389.53
2023-07-14T21:34:23.048Z,95382.56
2023-07-14T21:36:50.563Z,95377.75
2023-07-14T21:39:24.425Z,95383.94
2023-07-14T21:41:52.503Z,95381.69
2023-07-14T21:44:19.329Z,95384.84
2023-07-14T21:46:47.169Z,95377.97
2023-07-14T21:49:19.075Z,95387.78
2023-07-14T21:51:47.046Z,95390.34
2023-07-14T21:54:16.645Z,95386.31
2023-07-14T21:56:46.058Z,95394.97
2023-07-14T21:59:14.561Z,95400.72
2023-07-14T22:01:45.383Z,95395.31
2023-07-14T22:04:19.529Z,95398.00
2023-07-14T22:06:48.307Z,95396.22
2023-07-14T22:09:16.114Z,95400.91
2023-07-14T22:11:42.797Z,95401.81
2023-07-14T22:14:21.910Z,95396.31
2023-07-14T22:16:48.877Z,95403.97
2023-07-14T22:19:17.371Z,95390.78
2023-07-14T22:21:46.011Z,95405.28
2023-07-14T22:24:16.163Z,95411.34
2023-07-14T22:26:42.945Z,95406.22
2023-07-14T22:29:10.975Z,95409.69
2023-07-14T22:31:39.281Z,95406.28
2023-07-14T22:34:15.163Z,95411.03
2023-07-14T22:36:41.968Z,95401.03
2023-07-14T22:39:14.653Z,95407.13
2023-07-14T22:41:45.101Z,95399.38
2023-07-14T22:44:18.519Z,95403.41
2023-07-14T22:46:47.204Z,95405.50
2023-07-14T22:49:15.364Z,95408.47
2023-07-14T22:51:47.166Z,95402.25
2023-07-14T22:54:13.889Z,95411.28
2023-07-14T22:56:40.891Z,95401.78
2023-07-14T22:59:07.980Z,95401.91
2023-07-14T23:01:36.664Z,95401.91
2023-07-14T23:04:04.019Z,95412.19
2023-07-14T23:06:30.777Z,95398.84
2023-07-14T23:08:57.805Z,95409.59
2023-07-14T23:11:38.816Z,95412.59
2023-07-14T23:14:05.872Z,95406.59
2023-07-14T23:16:33.066Z,95410.44
2023-07-14T23:19:00.523Z,95417.03
2023-07-14T23:21:30.422Z,95407.78
2023-07-14T23:23:59.229Z,95413.31
2023-07-14T23:26:29.872Z,95421.72
2023-07-14T23:28:57.374Z,95424.19
2023-07-14T23:31:27.821Z,95416.81
2023-07-14T23:33:54.774Z,95422.31
2023-07-14T23:36:23.971Z,95428.38
2023-07-14T23:38:50.992Z,95415.53
2023-07-14T23:41:26.276Z,95418.31
2023-07-14T23:43:56.971Z,95419.38
2023-07-14T23:46:25.589Z,95419.19
2023-07-14T23:48:53.291Z,95420.25
2023-07-14T23:51:27.586Z,95421.44
2023-07-14T23:53:55.154Z,95416.97
2023-07-14T23:56:22.262Z,95417.09
2023-07-14T23:58:49.812Z,95414.16
